Time;durP1;ratioP1;P1;durP2;ratioP2;P2;SDS_P1;SDS_P2;PMS_P1;PMS_P2;Temp;Humidity;BMP_temperature;BMP_pressure;BME280_temperature;BME280_humidity;BME280_pressure;Samples;Min_cycle;Max_cycle;Signal;HPM_P1;HPM_P2
2022/05/31 00:00:08;;;;;;;7.30;4.10;;;11.60;71.30;;;;;;5041037;28;21012;-72
2022/05/31 00:02:34;;;;;;;4.73;3.30;;;11.60;70.80;;;;;;5041879;28;20462;-72
2022/05/31 00:05:02;;;;;;;6.80;3.23;;;11.70;71.10;;;;;;5041603;28;20498;-71
2022/05/31 00:07:27;;;;;;;4.17;3.20;;;11.70;71.00;;;;;;5042157;28;20427;-72
2022/05/31 00:09:53;;;;;;;6.53;3.10;;;11.80;70.80;;;;;;5043571;28;20185;-72
2022/05/31 00:12:19;;;;;;;6.33;3.60;;;11.80;71.10;;;;;;5040851;28;20254;-72
2022/05/31 00:14:45;;;;;;;6.90;3.30;;;11.70;71.30;;;;;;5048172;28;20283;-71
2022/05/31 00:17:11;;;;;;;5.40;3.37;;;11.70;71.60;;;;;;5035823;28;20839;-73
2022/05/31 00:19:37;;;;;;;5.80;2.97;;;11.60;71.70;;;;;;5037329;28;20424;-71
2022/05/31 00:22:10;;;;;;;5.80;3.53;;;11.60;71.80;;;;;;5043763;28;20220;-72
2022/05/31 00:24:39;;;;;;;6.57;3.03;;;11.50;72.00;;;;;;5039997;28;20822;-73
2022/05/31 00:27:09;;;;;;;9.03;3.53;;;11.50;72.60;;;;;;5040766;28;20423;-71
2022/05/31 00:29:35;;;;;;;5.47;3.37;;;11.50;72.70;;;;;;5040493;28;20506;-72
2022/05/31 00:32:04;;;;;;;5.73;2.90;;;11.40;72.70;;;;;;5043160;28;20431;-71
2022/05/31 00:34:32;;;;;;;4.63;3.10;;;11.30;72.60;;;;;;5036308;28;20416;-71
2022/05/31 00:36:58;;;;;;;4.20;2.80;;;11.30;72.00;;;;;;5044496;28;20441;-72
2022/05/31 00:39:24;;;;;;;3.53;2.60;;;11.30;72.10;;;;;;5049312;28;20423;-73
2022/05/31 00:42:10;;;;;;;4.23;3.23;;;11.30;71.60;;;;;;5058998;28;20565;-71
2022/05/31 00:44:37;;;;;;;6.07;3.50;;;11.30;71.60;;;;;;5048659;28;20434;-71
2022/05/31 00:47:07;;;;;;;5.20;2.90;;;11.30;71.70;;;;;;5048178;28;20419;-73
2022/05/31 00:49:38;;;;;;;3.77;2.80;;;11.30;72.00;;;;;;5050361;28;20422;-71
2022/05/31 00:52:37;;;;;;;5.10;3.00;;;11.20;72.00;;;;;;5051055;28;20415;-71
2022/05/31 00:55:17;;;;;;;4.73;2.87;;;11.10;71.70;;;;;;5036173;28;20458;-71
2022/05/31 00:57:53;;;;;;;5.00;2.90;;;11.10;72.10;;;;;;5040521;28;20442;-72
2022/05/31 01:00:19;;;;;;;3.97;2.73;;;11.10;72.40;;;;;;5045847;28;20425;-72
2022/05/31 01:02:47;;;;;;;5.63;3.17;;;11.10;72.90;;;;;;5044338;28;20471;-71
2022/05/31 01:05:13;;;;;;;9.00;3.70;;;11.10;73.30;;;;;;5045011;28;20450;-72
2022/05/31 01:07:40;;;;;;;10.07;3.60;;;11.10;73.60;;;;;;5041211;28;20518;-72
2022/05/31 01:10:08;;;;;;;7.00;4.10;;;11.00;74.20;;;;;;5038291;28;20850;-70
2022/05/31 01:12:35;;;;;;;4.73;3.23;;;10.90;74.60;;;;;;5045016;28;20492;-71
2022/05/31 01:15:01;;;;;;;5.50;3.70;;;10.90;74.90;;;;;;5047728;28;20465;-69
2022/05/31 01:17:27;;;;;;;5.80;3.73;;;11.00;75.10;;;;;;5047196;28;20477;-70
2022/05/31 01:19:58;;;;;;;4.30;3.40;;;11.00;74.80;;;;;;5048522;28;20426;-70
2022/05/31 01:22:29;;;;;;;5.70;3.53;;;11.00;74.80;;;;;;5057346;28;20468;-72
2022/05/31 01:25:33;;;;;;;7.67;3.70;;;10.70;75.80;;;;;;5047873;28;20969;-72
2022/05/31 01:28:29;;;;;;;3.90;3.20;;;10.50;76.70;;;;;;5044747;28;20464;-70
2022/05/31 01:31:17;;;;;;;6.50;3.60;;;10.40;77.00;;;;;;5045972;28;20502;-71
2022/05/31 01:34:09;;;;;;;5.67;3.20;;;10.40;77.40;;;;;;5040061;28;20419;-71
2022/05/31 01:36:50;;;;;;;6.67;3.73;;;10.40;77.10;;;;;;5044278;28;20459;-72
2022/05/31 01:39:37;;;;;;;4.73;2.37;;;10.40;76.70;;;;;;5043371;28;20420;-73
2022/05/31 01:42:12;;;;;;;3.83;2.80;;;10.40;76.20;;;;;;5045719;28;20498;-71
2022/05/31 01:44:43;;;;;;;4.10;3.13;;;10.40;75.40;;;;;;5050528;28;20476;-70
2022/05/31 01:47:09;;;;;;;3.87;3.00;;;10.40;75.10;;;;;;5052508;28;20425;-69
2022/05/31 01:49:39;;;;;;;5.70;3.50;;;10.40;75.20;;;;;;5050614;28;20434;-71
2022/05/31 01:52:06;;;;;;;7.10;3.60;;;10.50;75.10;;;;;;5055846;28;20793;-72
2022/05/31 01:54:34;;;;;;;6.70;4.10;;;10.50;76.20;;;;;;5052843;28;20430;-73
2022/05/31 01:57:03;;;;;;;5.00;3.40;;;10.50;76.70;;;;;;5049131;28;20438;-71
2022/05/31 01:59:34;;;;;;;5.90;3.47;;;10.60;76.80;;;;;;5050938;28;20847;-70
2022/05/31 02:02:01;;;;;;;5.60;3.63;;;10.50;76.50;;;;;;5043243;28;20494;-70
2022/05/31 02:04:28;;;;;;;8.93;4.60;;;10.40;77.00;;;;;;5040881;28;20423;-72
2022/05/31 02:07:10;;;;;;;5.33;3.30;;;10.30;77.60;;;;;;5048746;28;20581;-71
2022/05/31 02:09:36;;;;;;;4.93;3.30;;;10.20;77.70;;;;;;5048586;28;20422;-71
2022/05/31 02:12:03;;;;;;;6.67;3.33;;;10.20;78.00;;;;;;5043153;28;20424;-73
2022/05/31 02:14:29;;;;;;;8.30;4.20;;;10.20;77.80;;;;;;5044658;28;20424;-72
2022/05/31 02:16:55;;;;;;;6.80;3.50;;;10.30;77.70;;;;;;5047747;28;20515;-70
2022/05/31 02:19:25;;;;;;;5.47;3.40;;;10.20;77.70;;;;;;5046755;28;20188;-71
2022/05/31 02:21:59;;;;;;;3.87;3.00;;;10.20;78.00;;;;;;5049742;28;20687;-71
2022/05/31 02:24:26;;;;;;;7.50;3.80;;;10.20;77.70;;;;;;5043723;28;20434;-71
2022/05/31 02:26:52;;;;;;;7.00;3.50;;;10.30;77.40;;;;;;5036449;28;20431;-70
2022/05/31 02:29:22;;;;;;;5.57;3.70;;;10.40;77.10;;;;;;5040737;28;20496;-70
2022/05/31 02:31:48;;;;;;;6.10;3.57;;;10.30;77.40;;;;;;5043157;28;20427;-71
2022/05/31 02:34:17;;;;;;;6.20;3.70;;;10.30;77.80;;;;;;5041853;28;20439;-71
2022/05/31 02:36:43;;;;;;;6.60;3.43;;;10.20;78.10;;;;;;5041369;28;20459;-71
2022/05/31 02:39:09;;;;;;;4.23;3.30;;;10.20;78.10;;;;;;5046122;28;20432;-72
2022/05/31 02:41:35;;;;;;;6.40;3.70;;;10.10;78.30;;;;;;5047868;28;20433;-71
2022/05/31 02:44:02;;;;;;;4.27;3.37;;;10.10;78.40;;;;;;5042213;28;20530;-71
2022/05/31 02:46:28;;;;;;;7.00;3.90;;;10.10;78.40;;;;;;5038495;28;20470;-72
2022/05/31 02:48:54;;;;;;;6.47;3.67;;;10.10;78.60;;;;;;5041528;28;20423;-72
2022/05/31 02:51:20;;;;;;;7.00;3.40;;;10.10;78.40;;;;;;5037490;28;20427;-73
2022/05/31 02:53:46;;;;;;;5.10;3.50;;;10.10;78.00;;;;;;5043979;28;20438;-74
2022/05/31 02:56:12;;;;;;;10.87;4.10;;;10.10;77.70;;;;;;5041614;28;20530;-75
2022/05/31 02:58:37;;;;;;;6.00;3.83;;;10.10;78.30;;;;;;5039559;28;20681;-74
2022/05/31 03:01:27;;;;;;;4.43;3.57;;;9.90;79.20;;;;;;5041177;28;20192;-72
2022/05/31 03:03:53;;;;;;;6.93;3.57;;;9.80;79.70;;;;;;5042132;28;20193;-72
2022/05/31 03:06:20;;;;;;;4.53;3.40;;;9.70;80.20;;;;;;5037637;28;20526;-73
2022/05/31 03:08:47;;;;;;;6.03;3.63;;;9.60;80.60;;;;;;5037958;28;20844;-73
2022/05/31 03:11:54;;;;;;;4.97;3.73;;;9.70;80.60;;;;;;5045482;28;20422;-74
2022/05/31 03:14:33;;;;;;;5.13;3.77;;;9.70;80.50;;;;;;5039040;28;20418;-71
2022/05/31 03:17:06;;;;;;;6.33;3.47;;;9.70;80.50;;;;;;5039537;28;20505;-72
2022/05/31 03:19:38;;;;;;;6.07;3.87;;;9.70;79.90;;;;;;5040718;28;20412;-72
2022/05/31 03:22:12;;;;;;;8.70;3.53;;;9.70;80.20;;;;;;5039532;28;20538;-70
2022/05/31 03:24:43;;;;;;;3.93;3.20;;;9.70;80.00;;;;;;5041782;28;20422;-72
2022/05/31 03:27:10;;;;;;;5.13;3.47;;;9.60;80.20;;;;;;5035655;28;20420;-73
2022/05/31 03:29:39;;;;;;;9.50;4.07;;;9.60;80.60;;;;;;5044810;28;20422;-72
2022/05/31 03:32:06;;;;;;;4.57;3.53;;;9.60;80.90;;;;;;5036415;28;20424;-73
2022/05/31 03:34:32;;;;;;;6.03;3.87;;;9.50;80.80;;;;;;5046370;28;20422;-71
2022/05/31 03:36:58;;;;;;;7.47;4.40;;;9.50;80.90;;;;;;5036612;28;20428;-71
2022/05/31 03:39:24;;;;;;;4.83;3.77;;;9.50;80.90;;;;;;5042925;28;20444;-73
2022/05/31 03:41:50;;;;;;;7.17;3.90;;;9.50;80.90;;;;;;5039830;28;20466;-73
2022/05/31 03:44:15;;;;;;;6.83;3.80;;;9.40;81.10;;;;;;5046046;28;20807;-72
2022/05/31 03:46:41;;;;;;;6.00;3.80;;;9.40;81.50;;;;;;5033535;28;20299;-72
2022/05/31 03:49:07;;;;;;;6.63;4.30;;;9.40;81.50;;;;;;5044216;28;20176;-74
2022/05/31 03:51:33;;;;;;;5.27;3.70;;;9.40;81.70;;;;;;5036481;28;20223;-73
2022/05/31 03:53:58;;;;;;;5.47;4.20;;;9.40;81.80;;;;;;5046709;28;20230;-70
2022/05/31 03:56:24;;;;;;;7.73;4.10;;;9.40;81.50;;;;;;5044959;28;20557;-72
2022/05/31 03:58:50;;;;;;;5.40;3.83;;;9.40;81.90;;;;;;5042700;28;20207;-73
2022/05/31 04:01:15;;;;;;;5.60;3.73;;;9.60;81.40;;;;;;5040022;28;20192;-73
2022/05/31 04:03:42;;;;;;;4.63;3.10;;;9.60;80.80;;;;;;5046295;28;20325;-73
2022/05/31 04:06:08;;;;;;;7.23;3.87;;;9.70;80.30;;;;;;5043206;28;20231;-72
2022/05/31 04:08:34;;;;;;;8.60;4.00;;;9.80;79.70;;;;;;5050778;28;20447;-73
2022/05/31 04:11:00;;;;;;;7.47;3.90;;;9.80;79.50;;;;;;5058460;28;20183;-70
2022/05/31 04:13:27;;;;;;;4.50;3.50;;;9.80;79.30;;;;;;5051435;28;20427;-71
2022/05/31 04:16:11;;;;;;;6.67;3.63;;;9.90;79.60;;;;;;5052391;28;20200;-73
2022/05/31 04:18:37;;;;;;;5.40;3.90;;;10.00;79.50;;;;;;5038509;28;20415;-72
2022/05/31 04:21:06;;;;;;;5.20;4.00;;;10.00;79.20;;;;;;5040907;28;20419;-72
2022/05/31 04:26:16;;;;;;;5.13;3.63;;;10.10;79.30;;;;;;5036950;28;20851;-74
2022/05/31 04:28:42;;;;;;;4.07;2.80;;;10.00;79.50;;;;;;5037822;28;20509;-74
2022/05/31 04:31:09;;;;;;;6.30;3.30;;;10.00;79.70;;;;;;5042227;28;20867;-74
2022/05/31 04:33:35;;;;;;;7.83;3.97;;;10.10;79.60;;;;;;5034104;28;20420;-73
2022/05/31 04:36:06;;;;;;;4.60;3.23;;;10.20;79.00;;;;;;5041995;28;20454;-73
2022/05/31 04:38:33;;;;;;;3.40;2.77;;;10.30;78.30;;;;;;5037540;28;20787;-74
2022/05/31 04:40:59;;;;;;;5.17;3.53;;;10.40;78.00;;;;;;5037487;28;20419;-71
2022/05/31 04:43:25;;;;;;;3.87;3.20;;;10.40;77.80;;;;;;5043472;28;20565;-72
2022/05/31 04:45:51;;;;;;;8.20;3.80;;;10.40;78.10;;;;;;5041642;28;20200;-72
2022/05/31 04:48:17;;;;;;;5.97;4.00;;;10.40;78.10;;;;;;5035497;28;20422;-74
2022/05/31 04:50:43;;;;;;;6.67;3.90;;;10.40;78.60;;;;;;5044975;28;20208;-73
2022/05/31 04:53:08;;;;;;;8.43;4.37;;;10.50;78.40;;;;;;5034739;28;20188;-73
2022/05/31 04:55:34;;;;;;;5.90;3.57;;;10.70;77.70;;;;;;5040408;28;20212;-73
2022/05/31 04:58:00;;;;;;;6.13;4.30;;;10.80;77.10;;;;;;5039237;28;20525;-75
2022/05/31 05:00:26;;;;;;;7.97;4.80;;;10.90;76.80;;;;;;5036752;28;20195;-74
2022/05/31 05:02:51;;;;;;;8.77;3.93;;;10.90;76.70;;;;;;5038851;28;20203;-74
2022/05/31 05:05:17;;;;;;;5.53;3.90;;;10.80;76.80;;;;;;5036579;28;20213;-73
2022/05/31 05:07:43;;;;;;;7.73;4.50;;;10.80;77.30;;;;;;5039866;28;20185;-74
2022/05/31 05:10:09;;;;;;;8.20;5.10;;;10.80;77.30;;;;;;5037346;28;20223;-75
2022/05/31 05:12:36;;;;;;;6.47;4.30;;;10.80;77.30;;;;;;5040241;28;20424;-75
2022/05/31 05:15:03;;;;;;;8.27;4.60;;;10.80;77.00;;;;;;5040904;28;20822;-73
2022/05/31 05:17:28;;;;;;;7.83;4.67;;;10.70;77.30;;;;;;5046077;28;20926;-69
2022/05/31 05:19:54;;;;;;;6.80;4.53;;;10.60;77.30;;;;;;5041041;28;20424;-73
2022/05/31 05:22:20;;;;;;;8.07;5.10;;;10.60;77.40;;;;;;5045591;28;20211;-74
2022/05/31 05:24:45;;;;;;;8.23;5.10;;;10.60;76.80;;;;;;5038869;28;20247;-73
2022/05/31 05:27:11;;;;;;;7.43;4.93;;;10.70;76.50;;;;;;5048384;28;20183;-74
2022/05/31 05:32:21;;;;;;;4.60;3.90;;;10.90;75.20;;;;;;5051101;28;20245;-73
2022/05/31 05:34:53;;;;;;;6.10;4.00;;;11.00;74.60;;;;;;5038133;28;20493;-74
2022/05/31 05:37:20;;;;;;;6.87;4.17;;;11.00;74.20;;;;;;5046849;28;20563;-73
2022/05/31 05:39:46;;;;;;;6.73;4.60;;;11.10;74.30;;;;;;5041141;28;20457;-74
2022/05/31 05:42:13;;;;;;;5.47;4.33;;;11.20;73.90;;;;;;5045957;28;20550;-74
2022/05/31 05:44:38;;;;;;;7.07;5.43;;;11.40;73.60;;;;;;5041229;28;20184;-74
2022/05/31 05:47:06;;;;;;;5.90;4.43;;;11.50;73.50;;;;;;5040340;28;20423;-72
2022/05/31 05:49:32;;;;;;;10.90;4.83;;;11.50;73.30;;;;;;5040544;28;20189;-73
2022/05/31 05:52:02;;;;;;;5.87;4.50;;;11.70;72.90;;;;;;5044033;28;20476;-73
2022/05/31 05:54:28;;;;;;;6.63;4.00;;;11.90;71.70;;;;;;5037582;28;20581;-72
2022/05/31 05:56:54;;;;;;;7.70;4.40;;;12.00;71.00;;;;;;5050050;28;20434;-74
2022/05/31 05:59:20;;;;;;;8.23;4.60;;;12.10;70.80;;;;;;5046261;28;20223;-72
2022/05/31 06:01:49;;;;;;;7.40;4.43;;;12.30;70.80;;;;;;5040687;28;20288;-73
2022/05/31 06:04:19;;;;;;;8.83;5.10;;;12.40;70.20;;;;;;5046029;28;20189;-72
2022/05/31 06:06:46;;;;;;;8.73;4.57;;;12.50;69.70;;;;;;5042318;28;20520;-73
2022/05/31 06:09:17;;;;;;;6.73;3.90;;;12.70;69.20;;;;;;5046326;28;20510;-72
2022/05/31 06:11:47;;;;;;;5.83;3.80;;;13.00;68.60;;;;;;5045982;28;20440;-74
2022/05/31 06:14:24;;;;;;;6.60;4.60;;;13.20;68.30;;;;;;5050501;28;20442;-73
2022/05/31 06:16:55;;;;;;;8.23;4.50;;;13.50;67.60;;;;;;5043520;28;20435;-76
2022/05/31 06:19:26;;;;;;;4.97;3.97;;;13.70;66.30;;;;;;5054409;28;20420;-72
2022/05/31 06:21:52;;;;;;;5.30;4.10;;;13.80;66.00;;;;;;5052364;28;20520;-73
2022/05/31 06:24:19;;;;;;;7.03;4.60;;;14.00;65.70;;;;;;5056692;28;20450;-74
2022/05/31 06:26:45;;;;;;;5.70;4.20;;;14.10;65.60;;;;;;5051587;28;20455;-72
2022/05/31 06:29:11;;;;;;;6.00;4.37;;;14.20;65.40;;;;;;5046961;28;20433;-74
2022/05/31 06:31:38;;;;;;;6.27;4.23;;;14.40;65.10;;;;;;5047159;28;20180;-73
2022/05/31 06:34:04;;;;;;;5.10;3.90;;;14.40;64.20;;;;;;5050708;28;20431;-73
2022/05/31 06:36:30;;;;;;;9.43;4.50;;;14.50;63.40;;;;;;5048220;28;20460;-71
2022/05/31 06:38:56;;;;;;;4.80;3.50;;;14.50;63.50;;;;;;5043345;28;20514;-71
2022/05/31 06:41:22;;;;;;;5.83;4.50;;;14.50;63.90;;;;;;5036922;28;20530;-75
2022/05/31 06:43:48;;;;;;;6.90;4.20;;;14.50;63.50;;;;;;5045957;28;20468;-72
2022/05/31 06:46:15;;;;;;;6.83;4.20;;;14.60;63.70;;;;;;5042277;28;20457;-73
2022/05/31 06:48:41;;;;;;;5.97;4.07;;;15.00;62.90;;;;;;5041642;28;20447;-72
2022/05/31 06:51:09;;;;;;;7.40;4.07;;;15.30;62.30;;;;;;5047918;28;20867;-69
2022/05/31 06:59:04;;;;;;;7.43;4.30;;;15.40;62.00;;;;;;5044209;28;20475;-75
2022/05/31 07:01:35;;;;;;;9.30;3.87;;;15.60;61.70;;;;;;5045675;28;20823;-73
2022/05/31 07:04:02;;;;;;;6.50;3.60;;;15.60;61.30;;;;;;5043203;28;20199;-73
2022/05/31 07:06:28;;;;;;;6.33;4.03;;;15.40;61.50;;;;;;5039594;28;20487;-75
2022/05/31 07:08:54;;;;;;;5.00;3.40;;;15.40;62.20;;;;;;5043731;28;20411;-74
2022/05/31 07:11:21;;;;;;;4.57;3.30;;;15.60;62.30;;;;;;5042657;28;20475;-73
2022/05/31 07:13:47;;;;;;;12.13;5.77;;;15.80;61.90;;;;;;5043057;28;20789;-73
2022/05/31 07:16:13;;;;;;;12.10;6.83;;;15.70;62.20;;;;;;5038196;28;20957;-73
2022/05/31 07:18:39;;;;;;;15.33;7.60;;;15.60;63.20;;;;;;5039201;28;20506;-73
2022/05/31 07:21:05;;;;;;;13.13;7.47;;;15.70;63.50;;;;;;5040933;28;20801;-75
2022/05/31 07:23:31;;;;;;;7.67;5.70;;;15.70;63.80;;;;;;5037347;28;20467;-73
2022/05/31 07:26:03;;;;;;;13.40;6.70;;;15.90;63.70;;;;;;5043582;28;20254;-75
2022/05/31 07:28:29;;;;;;;17.10;6.83;;;15.90;63.40;;;;;;5043777;28;20659;-73
2022/05/31 07:30:56;;;;;;;11.50;7.00;;;16.10;63.70;;;;;;5039500;28;20448;-74
2022/05/31 07:33:22;;;;;;;16.00;6.93;;;16.10;63.80;;;;;;5043822;28;20673;-72
2022/05/31 07:35:49;;;;;;;13.57;7.00;;;16.40;63.70;;;;;;5034550;28;20491;-76
2022/05/31 07:38:16;;;;;;;10.93;6.70;;;16.60;62.90;;;;;;5041280;28;20431;-72
2022/05/31 07:40:43;;;;;;;13.93;6.77;;;16.60;62.50;;;;;;5037275;28;20440;-73
2022/05/31 07:43:08;;;;;;;31.03;7.80;;;16.60;62.30;;;;;;5045685;28;20484;-74
2022/05/31 07:45:34;;;;;;;10.93;6.50;;;16.60;61.90;;;;;;5040558;28;21036;-71
2022/05/31 07:48:00;;;;;;;8.73;5.20;;;16.60;62.00;;;;;;5052375;28;20196;-75
2022/05/31 07:50:26;;;;;;;8.53;5.03;;;16.80;61.00;;;;;;5043765;28;20593;-76
2022/05/31 07:52:51;;;;;;;7.27;4.77;;;17.00;60.70;;;;;;5049967;28;20181;-74
2022/05/31 07:55:17;;;;;;;8.23;5.13;;;17.10;60.10;;;;;;5049046;28;20463;-72
2022/05/31 08:00:28;;;;;;;10.00;4.43;;;17.20;60.60;;;;;;5042327;28;20234;-72
2022/05/31 08:02:53;;;;;;;5.00;3.30;;;17.40;59.70;;;;;;5048893;28;20474;-75
2022/05/31 08:05:19;;;;;;;5.13;3.07;;;17.50;58.20;;;;;;5035634;28;20464;-73
2022/05/31 08:07:45;;;;;;;9.87;3.40;;;17.50;58.10;;;;;;5048921;28;20189;-74
2022/05/31 08:10:12;;;;;;;6.83;3.00;;;17.70;57.70;;;;;;5041274;28;20209;-73
2022/05/31 08:12:39;;;;;;;9.20;3.17;;;17.80;56.90;;;;;;5047377;28;20186;-75
2022/05/31 08:15:05;;;;;;;4.00;2.70;;;17.80;57.40;;;;;;5046593;28;20467;-73
2022/05/31 08:17:31;;;;;;;4.90;2.60;;;17.90;57.60;;;;;;5037811;28;20464;-73
2022/05/31 08:19:56;;;;;;;3.87;2.80;;;17.90;56.40;;;;;;5037874;28;20873;-73
2022/05/31 08:22:23;;;;;;;4.43;2.87;;;17.80;56.90;;;;;;5039165;28;20219;-73
2022/05/31 08:24:49;;;;;;;5.37;3.10;;;17.90;57.00;;;;;;5038251;28;20245;-75
2022/05/31 08:27:15;;;;;;;4.57;2.80;;;18.00;56.80;;;;;;5040114;28;20444;-72
2022/05/31 08:29:41;;;;;;;5.33;3.90;;;18.00;56.20;;;;;;5040744;28;20467;-71
2022/05/31 08:32:07;;;;;;;4.90;2.87;;;18.00;56.50;;;;;;5040615;28;20592;-74
2022/05/31 08:34:33;;;;;;;4.57;3.03;;;18.10;56.50;;;;;;5038813;28;20439;-74
2022/05/31 08:36:59;;;;;;;4.60;2.97;;;18.10;56.40;;;;;;5037435;28;20896;-72
2022/05/31 08:39:25;;;;;;;4.33;2.97;;;18.20;55.30;;;;;;5043586;28;20200;-75
2022/05/31 08:42:05;;;;;;;6.93;2.70;;;18.30;54.80;;;;;;5041978;28;21372;-73
2022/05/31 08:44:44;;;;;;;6.30;2.80;;;18.40;54.00;;;;;;5044083;28;20260;-73
2022/05/31 08:47:15;;;;;;;4.70;2.67;;;18.50;53.70;;;;;;5039849;28;20432;-71
2022/05/31 08:53:07;;;;;;;6.30;2.70;;;18.60;53.20;;;;;;5039704;28;20452;-72
2022/05/31 08:58:45;;;;;;;2.93;2.77;;;19.00;53.20;;;;;;5040648;28;20446;-74
2022/05/31 09:01:16;;;;;;;3.80;2.80;;;19.20;52.60;;;;;;5038377;28;20419;-72
2022/05/31 09:03:48;;;;;;;4.30;2.40;;;19.40;51.80;;;;;;5041163;28;20633;-73
2022/05/31 09:06:28;;;;;;;4.50;2.57;;;19.60;51.70;;;;;;5037324;28;20463;-73
2022/05/31 09:09:24;;;;;;;2.80;2.50;;;19.90;52.00;;;;;;5042424;28;20414;-72
2022/05/31 09:12:13;;;;;;;3.53;2.50;;;20.10;51.00;;;;;;5028223;28;20426;-72
2022/05/31 09:14:49;;;;;;;3.40;2.43;;;20.20;51.00;;;;;;5020527;28;20423;-74
2022/05/31 09:17:27;;;;;;;3.47;2.63;;;20.30;50.50;;;;;;5023275;28;20457;-72
2022/05/31 09:20:27;;;;;;;4.67;2.67;;;20.30;50.70;;;;;;5019918;28;21045;-72
2022/05/31 09:22:54;;;;;;;6.30;3.00;;;20.40;50.60;;;;;;5018670;28;20956;-71
2022/05/31 09:25:20;;;;;;;5.70;3.33;;;20.50;49.90;;;;;;5018071;28;21015;-73
2022/05/31 09:27:50;;;;;;;4.93;3.40;;;20.50;49.80;;;;;;5022120;28;20422;-73
2022/05/31 09:30:35;;;;;;;3.40;2.80;;;20.40;50.70;;;;;;5015505;28;20484;-72
2022/05/31 09:33:20;;;;;;;3.10;2.90;;;20.30;50.60;;;;;;5013517;28;20464;-72
2022/05/31 09:35:55;;;;;;;3.80;2.73;;;20.40;50.30;;;;;;5026242;28;20541;-75
2022/05/31 09:38:24;;;;;;;3.10;2.63;;;20.30;50.60;;;;;;5011758;28;20916;-73
2022/05/31 09:40:51;;;;;;;3.73;3.07;;;20.30;50.60;;;;;;5008574;28;20429;-72
2022/05/31 09:43:39;;;;;;;4.20;2.80;;;20.40;50.70;;;;;;5017524;28;20481;-71
2022/05/31 09:46:10;;;;;;;5.47;2.47;;;20.40;50.50;;;;;;5019876;28;20632;-71
2022/05/31 09:48:48;;;;;;;6.50;2.73;;;20.60;48.60;;;;;;5030237;28;20424;-72
2022/05/31 09:51:36;;;;;;;3.40;2.50;;;20.80;47.70;;;;;;5036559;28;20488;-71
2022/05/31 09:57:06;;;;;;;4.00;2.77;;;20.90;45.50;;;;;;5037778;28;20498;-72
2022/05/31 09:59:35;;;;;;;4.80;2.70;;;21.00;46.30;;;;;;5039276;28;20967;-72
2022/05/31 10:02:30;;;;;;;2.80;2.50;;;21.00;45.90;;;;;;5038559;28;20551;-72
2022/05/31 10:05:13;;;;;;;3.00;2.50;;;20.90;45.30;;;;;;5038445;28;21110;-73
2022/05/31 10:07:38;;;;;;;3.60;2.70;;;21.40;45.40;;;;;;5040547;28;20821;-73
2022/05/31 10:10:11;;;;;;;7.83;2.50;;;21.80;44.30;;;;;;5042222;28;20446;-72
2022/05/31 10:12:47;;;;;;;5.23;2.90;;;22.10;42.70;;;;;;5042069;28;20192;-72
2022/05/31 10:15:50;;;;;;;3.10;2.53;;;22.60;41.60;;;;;;5037538;28;20495;-73
2022/05/31 10:18:31;;;;;;;8.60;2.83;;;23.00;40.60;;;;;;5045654;28;20445;-72
2022/05/31 10:20:59;;;;;;;7.10;3.47;;;22.90;41.40;;;;;;5049302;28;20485;-72
2022/05/31 10:23:37;;;;;;;4.50;3.37;;;22.20;42.70;;;;;;5048503;28;20962;-71
2022/05/31 10:26:04;;;;;;;6.53;3.07;;;21.60;44.30;;;;;;5041404;28;20466;-70
2022/05/31 10:28:30;;;;;;;4.13;3.20;;;21.50;44.60;;;;;;5046724;28;20840;-74
2022/05/31 10:31:04;;;;;;;5.20;3.43;;;21.40;44.30;;;;;;5046438;28;20655;-71
2022/05/31 10:33:31;;;;;;;3.73;3.33;;;21.20;45.30;;;;;;5046431;28;20187;-74
2022/05/31 10:36:31;;;;;;;4.43;3.10;;;21.30;45.10;;;;;;5048638;28;20461;-72
2022/05/31 10:39:08;;;;;;;5.13;3.13;;;21.50;45.00;;;;;;5047396;28;20460;-73
2022/05/31 10:41:36;;;;;;;4.80;3.17;;;21.60;45.30;;;;;;5048375;28;20487;-73
2022/05/31 10:44:23;;;;;;;9.40;3.73;;;21.60;48.50;;;;;;5056942;28;20540;-75
2022/05/31 10:46:55;;;;;;;4.10;3.17;;;21.90;48.90;;;;;;5045443;28;20477;-72
2022/05/31 10:49:22;;;;;;;5.77;3.50;;;22.20;47.80;;;;;;5052166;28;20560;-71
2022/05/31 10:52:08;;;;;;;14.30;3.50;;;22.00;47.80;;;;;;5061798;28;21336;-72
2022/05/31 10:54:43;;;;;;;5.67;3.70;;;21.70;48.30;;;;;;5055832;28;20791;-72
2022/05/31 10:57:39;;;;;;;8.97;4.07;;;21.50;49.10;;;;;;5060730;28;20437;-72
2022/05/31 11:00:20;;;;;;;6.50;4.10;;;21.90;49.10;;;;;;5060964;28;20431;-71
2022/05/31 11:03:02;;;;;;;5.70;4.20;;;22.20;47.90;;;;;;5062954;28;20477;-72
2022/05/31 11:06:05;;;;;;;8.43;3.77;;;22.40;45.90;;;;;;5059083;28;20466;-73
2022/05/31 11:11:47;;;;;;;5.70;4.10;;;21.60;47.70;;;;;;5064485;28;20929;-73
2022/05/31 11:14:13;;;;;;;5.87;4.17;;;21.50;48.30;;;;;;5053457;28;20489;-75
2022/05/31 11:16:57;;;;;;;10.90;4.60;;;21.90;47.10;;;;;;5034796;28;20455;-73
2022/05/31 11:19:43;;;;;;;7.60;3.87;;;21.90;46.50;;;;;;5046063;28;20193;-72
2022/05/31 11:22:09;;;;;;;7.13;4.50;;;21.80;47.10;;;;;;5051955;28;20463;-72
2022/05/31 11:25:01;;;;;;;8.47;3.50;;;22.10;46.70;;;;;;5042805;28;20421;-71
2022/05/31 11:27:43;;;;;;;4.80;3.37;;;22.50;45.90;;;;;;5037958;28;20221;-72
2022/05/31 11:30:17;;;;;;;8.67;3.67;;;22.90;44.30;;;;;;5041687;28;20421;-72
2022/05/31 11:33:03;;;;;;;5.23;3.80;;;23.10;43.10;;;;;;5042253;28;20466;-72
2022/05/31 11:35:53;;;;;;;5.70;3.47;;;22.90;43.70;;;;;;5036989;28;20488;-74
2022/05/31 11:38:32;;;;;;;4.17;3.03;;;23.30;41.80;;;;;;5042810;28;20431;-72
2022/05/31 11:41:16;;;;;;;4.30;3.30;;;23.10;42.00;;;;;;5041761;28;20430;-73
2022/05/31 11:44:00;;;;;;;10.07;3.30;;;23.20;40.60;;;;;;5045631;28;20561;-72
2022/05/31 11:46:31;;;;;;;6.50;3.13;;;23.00;41.10;;;;;;5046548;28;20491;-72
2022/05/31 11:49:07;;;;;;;3.63;2.90;;;22.60;41.80;;;;;;5042043;28;20513;-73
2022/05/31 11:51:51;;;;;;;7.10;2.90;;;22.40;42.20;;;;;;5047138;28;20496;-72
2022/05/31 11:54:31;;;;;;;5.27;2.80;;;22.20;42.70;;;;;;5047286;28;20941;-72
2022/05/31 11:57:13;;;;;;;4.83;3.30;;;22.30;41.00;;;;;;5042338;28;20443;-72
2022/05/31 11:59:47;;;;;;;3.87;2.57;;;22.20;41.10;;;;;;5037802;28;21062;-72
2022/05/31 12:02:37;;;;;;;5.20;3.33;;;22.00;41.10;;;;;;5038603;28;20976;-71
2022/05/31 12:05:33;;;;;;;3.93;3.13;;;21.90;41.90;;;;;;5048988;28;20469;-72
2022/05/31 12:08:14;;;;;;;7.60;3.20;;;22.20;41.10;;;;;;5041099;28;20423;-74
2022/05/31 12:10:52;;;;;;;8.13;2.60;;;22.10;40.30;;;;;;5042827;28;20426;-72
2022/05/31 12:13:19;;;;;;;6.57;3.10;;;22.40;40.60;;;;;;5047287;28;20429;-73
2022/05/31 12:15:48;;;;;;;7.07;3.70;;;22.50;41.00;;;;;;5050124;28;20489;-74
2022/05/31 12:18:40;;;;;;;6.33;3.23;;;22.80;39.60;;;;;;5047546;28;20430;-73
2022/05/31 12:21:21;;;;;;;7.10;3.27;;;23.20;39.10;;;;;;5038831;28;20498;-73
2022/05/31 12:24:05;;;;;;;8.20;3.50;;;23.20;38.60;;;;;;5046334;28;20563;-72
2022/05/31 12:26:35;;;;;;;6.47;3.40;;;23.00;39.40;;;;;;5040474;28;20457;-73
2022/05/31 12:29:16;;;;;;;5.13;2.90;;;23.10;39.50;;;;;;5040707;28;20427;-72
2022/05/31 12:31:43;;;;;;;8.23;2.53;;;23.10;38.00;;;;;;5040789;28;20472;-73
2022/05/31 12:34:21;;;;;;;4.10;2.83;;;23.10;38.00;;;;;;5050071;28;20429;-74
2022/05/31 12:37:01;;;;;;;6.30;3.50;;;23.30;38.20;;;;;;5071472;28;20502;-73
2022/05/31 12:39:30;;;;;;;11.13;2.90;;;22.70;38.60;;;;;;5074793;28;20425;-72
2022/05/31 12:41:58;;;;;;;4.30;2.90;;;22.40;39.10;;;;;;5058588;28;20426;-73
2022/05/31 12:44:28;;;;;;;5.30;2.37;;;22.80;39.20;;;;;;5044818;28;20513;-74
2022/05/31 12:47:08;;;;;;;3.60;2.53;;;22.90;38.20;;;;;;5034499;28;20448;-73
2022/05/31 12:49:36;;;;;;;4.13;3.03;;;23.10;37.80;;;;;;5038778;28;20429;-74
2022/05/31 12:54:49;;;;;;;3.40;3.00;;;23.30;37.50;;;;;;5037227;28;20967;-74
2022/05/31 13:00:34;;;;;;;5.03;3.40;;;24.10;35.90;;;;;;5041583;28;20418;-72
2022/05/31 13:03:03;;;;;;;4.20;3.17;;;23.50;37.20;;;;;;5042914;28;20578;-72
2022/05/31 13:05:32;;;;;;;9.00;3.37;;;23.60;37.80;;;;;;5039471;28;20463;-73
2022/05/31 13:08:18;;;;;;;7.87;2.93;;;24.40;35.70;;;;;;5046474;28;20978;-72
2022/05/31 13:22:03;;;;;;;5.33;3.03;;;24.10;35.90;;;;;;5037378;28;20417;-72
2022/05/31 13:24:30;;;;;;;5.27;2.80;;;23.10;36.60;;;;;;5037795;28;20841;-74
2022/05/31 13:26:58;;;;;;;4.47;2.40;;;23.40;36.70;;;;;;5037505;28;20433;-72
2022/05/31 13:29:24;;;;;;;5.40;2.30;;;23.40;35.60;;;;;;5048327;28;20455;-73
2022/05/31 13:31:58;;;;;;;3.50;2.40;;;23.20;36.00;;;;;;5044746;28;21143;-72
2022/05/31 13:34:30;;;;;;;4.13;2.60;;;24.10;34.70;;;;;;5044905;28;20188;-72
2022/05/31 13:36:58;;;;;;;5.23;2.67;;;24.10;34.30;;;;;;5042231;28;20433;-73
2022/05/31 13:39:25;;;;;;;2.90;2.43;;;23.60;34.80;;;;;;5046636;28;20426;-72
2022/05/31 13:41:56;;;;;;;5.00;2.90;;;23.30;35.10;;;;;;5041518;28;20429;-73
2022/05/31 13:44:29;;;;;;;3.73;2.80;;;22.40;36.60;;;;;;5047858;28;20430;-72
2022/05/31 13:47:03;;;;;;;6.30;3.77;;;22.70;36.60;;;;;;5036612;28;20475;-72
2022/05/31 13:49:43;;;;;;;4.00;2.63;;;23.30;36.00;;;;;;5045654;28;20425;-73
2022/05/31 13:52:27;;;;;;;2.40;2.30;;;24.10;34.70;;;;;;5039510;28;20908;-72